sensor_id;sensor_type;location;lat;lon;timestamp;temperature;humidity
62916;DHT22;49010;51.230;-2.306;2022-09-03T00:06:32;19.70;70.60
62916;DHT22;49010;51.230;-2.306;2022-09-03T00:10:45;19.60;71.30
62916;DHT22;49010;51.230;-2.306;2022-09-03T00:14:54;19.50;71.50
62916;DHT22;49010;51.230;-2.306;2022-09-03T00:18:46;19.40;70.50
62916;DHT22;49010;51.230;-2.306;2022-09-03T00:22:41;19.30;71.50
62916;DHT22;49010;51.230;-2.306;2022-09-03T00:26:30;19.30;71.60
62916;DHT22;49010;51.230;-2.306;2022-09-03T00:30:15;19.20;71.80
62916;DHT22;49010;51.230;-2.306;2022-09-03T00:34:40;19.20;72.20
62916;DHT22;49010;51.230;-2.306;2022-09-03T00:38:22;19.20;71.00
62916;DHT22;49010;51.230;-2.306;2022-09-03T00:42:37;19.10;72.30
62916;DHT22;49010;51.230;-2.306;2022-09-03T00:54:17;18.90;72.60
62916;DHT22;49010;51.230;-2.306;2022-09-03T01:10:21;18.70;73.30
62916;DHT22;49010;51.230;-2.306;2022-09-03T01:14:34;18.70;74.70
62916;DHT22;49010;51.230;-2.306;2022-09-03T01:18:43;18.60;73.70
62916;DHT22;49010;51.230;-2.306;2022-09-03T01:27:16;18.50;75.40
62916;DHT22;49010;51.230;-2.306;2022-09-03T01:31:15;18.40;73.80
62916;DHT22;49010;51.230;-2.306;2022-09-03T01:39:33;18.20;75.70
62916;DHT22;49010;51.230;-2.306;2022-09-03T01:51:37;17.90;76.30
62916;DHT22;49010;51.230;-2.306;2022-09-03T01:59:29;17.90;76.40
62916;DHT22;49010;51.230;-2.306;2022-09-03T02:03:14;17.90;77.90
62916;DHT22;49010;51.230;-2.306;2022-09-03T02:06:58;17.80;78.50
62916;DHT22;49010;51.230;-2.306;2022-09-03T02:10:53;17.80;79.00
62916;DHT22;49010;51.230;-2.306;2022-09-03T02:14:36;17.80;77.50
62916;DHT22;49010;51.230;-2.306;2022-09-03T02:18:28;17.80;77.90
62916;DHT22;49010;51.230;-2.306;2022-09-03T02:22:12;17.80;78.50
62916;DHT22;49010;51.230;-2.306;2022-09-03T02:25:59;17.80;79.20
62916;DHT22;49010;51.230;-2.306;2022-09-03T02:29:42;17.70;79.20
62916;DHT22;49010;51.230;-2.306;2022-09-03T02:33:24;17.70;79.40
62916;DHT22;49010;51.230;-2.306;2022-09-03T02:37:14;17.70;79.70
62916;DHT22;49010;51.230;-2.306;2022-09-03T02:40:57;17.70;79.30
62916;DHT22;49010;51.230;-2.306;2022-09-03T02:44:43;17.60;79.40
62916;DHT22;49010;51.230;-2.306;2022-09-03T02:48:27;17.60;80.00
62916;DHT22;49010;51.230;-2.306;2022-09-03T02:52:09;17.50;79.80
62916;DHT22;49010;51.230;-2.306;2022-09-03T02:55:57;17.60;80.00
62916;DHT22;49010;51.230;-2.306;2022-09-03T02:59:40;17.60;79.80
62916;DHT22;49010;51.230;-2.306;2022-09-03T03:03:24;17.50;80.00
62916;DHT22;49010;51.230;-2.306;2022-09-03T03:07:07;17.50;80.40
62916;DHT22;49010;51.230;-2.306;2022-09-03T03:10:50;17.50;80.80
62916;DHT22;49010;51.230;-2.306;2022-09-03T03:14:32;17.50;80.80
62916;DHT22;49010;51.230;-2.306;2022-09-03T03:18:14;17.50;81.00
62916;DHT22;49010;51.230;-2.306;2022-09-03T03:21:58;17.50;80.90
62916;DHT22;49010;51.230;-2.306;2022-09-03T03:25:39;17.50;80.50
62916;DHT22;49010;51.230;-2.306;2022-09-03T03:29:21;17.50;80.60
62916;DHT22;49010;51.230;-2.306;2022-09-03T03:33:03;17.50;80.70
62916;DHT22;49010;51.230;-2.306;2022-09-03T03:36:45;17.60;80.90
62916;DHT22;49010;51.230;-2.306;2022-09-03T03:40:29;17.60;81.20
62916;DHT22;49010;51.230;-2.306;2022-09-03T03:44:11;17.60;81.40
62916;DHT22;49010;51.230;-2.306;2022-09-03T03:47:57;17.60;81.60
62916;DHT22;49010;51.230;-2.306;2022-09-03T03:51:39;17.60;81.70
62916;DHT22;49010;51.230;-2.306;2022-09-03T03:55:21;17.60;81.90
62916;DHT22;49010;51.230;-2.306;2022-09-03T03:59:07;17.70;82.30
62916;DHT22;49010;51.230;-2.306;2022-09-03T04:02:49;17.70;82.50
62916;DHT22;49010;51.230;-2.306;2022-09-03T04:06:31;17.70;82.00
62916;DHT22;49010;51.230;-2.306;2022-09-03T04:10:13;17.60;81.20
62916;DHT22;49010;51.230;-2.306;2022-09-03T04:13:56;17.60;81.20
62916;DHT22;49010;51.230;-2.306;2022-09-03T04:17:38;17.60;81.20
62916;DHT22;49010;51.230;-2.306;2022-09-03T04:21:22;17.60;81.00
62916;DHT22;49010;51.230;-2.306;2022-09-03T04:25:06;17.50;80.90
62916;DHT22;49010;51.230;-2.306;2022-09-03T04:28:48;17.50;81.00
62916;DHT22;49010;51.230;-2.306;2022-09-03T04:32:30;17.40;81.00
62916;DHT22;49010;51.230;-2.306;2022-09-03T04:36:33;17.30;80.90
62916;DHT22;49010;51.230;-2.306;2022-09-03T04:40:16;17.30;81.40
62916;DHT22;49010;51.230;-2.306;2022-09-03T04:43:58;17.30;81.50
62916;DHT22;49010;51.230;-2.306;2022-09-03T04:47:41;17.20;81.40
62916;DHT22;49010;51.230;-2.306;2022-09-03T04:51:25;17.20;81.80
62916;DHT22;49010;51.230;-2.306;2022-09-03T04:55:08;17.10;82.00
62916;DHT22;49010;51.230;-2.306;2022-09-03T04:58:56;17.10;82.10
62916;DHT22;49010;51.230;-2.306;2022-09-03T05:02:38;17.00;81.50
62916;DHT22;49010;51.230;-2.306;2022-09-03T05:06:20;17.00;81.80
62916;DHT22;49010;51.230;-2.306;2022-09-03T05:10:02;16.90;82.00
62916;DHT22;49010;51.230;-2.306;2022-09-03T05:13:53;16.90;82.30
62916;DHT22;49010;51.230;-2.306;2022-09-03T05:17:35;16.80;82.60
62916;DHT22;49010;51.230;-2.306;2022-09-03T05:21:19;16.80;83.20
62916;DHT22;49010;51.230;-2.306;2022-09-03T05:25:01;16.80;83.30
62916;DHT22;49010;51.230;-2.306;2022-09-03T05:28:44;16.80;83.40
62916;DHT22;49010;51.230;-2.306;2022-09-03T05:32:29;16.80;83.60
62916;DHT22;49010;51.230;-2.306;2022-09-03T05:36:13;16.80;83.70
62916;DHT22;49010;51.230;-2.306;2022-09-03T05:39:56;16.80;83.90
62916;DHT22;49010;51.230;-2.306;2022-09-03T05:43:39;16.70;83.90
62916;DHT22;49010;51.230;-2.306;2022-09-03T05:47:21;16.70;84.00
62916;DHT22;49010;51.230;-2.306;2022-09-03T05:51:11;16.70;83.50
62916;DHT22;49010;51.230;-2.306;2022-09-03T05:54:54;16.70;83.40
62916;DHT22;49010;51.230;-2.306;2022-09-03T05:58:38;16.60;83.90
62916;DHT22;49010;51.230;-2.306;2022-09-03T06:02:21;16.60;83.90
62916;DHT22;49010;51.230;-2.306;2022-09-03T06:06:03;16.60;85.40
62916;DHT22;49010;51.230;-2.306;2022-09-03T06:09:45;16.60;85.00
62916;DHT22;49010;51.230;-2.306;2022-09-03T06:13:27;16.60;84.70
62916;DHT22;49010;51.230;-2.306;2022-09-03T06:17:10;16.70;84.40
62916;DHT22;49010;51.230;-2.306;2022-09-03T06:21:02;16.70;84.30
62916;DHT22;49010;51.230;-2.306;2022-09-03T06:24:44;16.70;84.20
62916;DHT22;49010;51.230;-2.306;2022-09-03T06:28:26;16.80;84.60
62916;DHT22;49010;51.230;-2.306;2022-09-03T06:32:08;16.90;84.90
62916;DHT22;49010;51.230;-2.306;2022-09-03T06:35:54;17.00;85.40
62916;DHT22;49010;51.230;-2.306;2022-09-03T06:39:39;17.10;86.40
62916;DHT22;49010;51.230;-2.306;2022-09-03T06:43:22;17.20;86.30
62916;DHT22;49010;51.230;-2.306;2022-09-03T06:47:04;17.30;86.60
62916;DHT22;49010;51.230;-2.306;2022-09-03T06:50:53;17.40;86.90
62916;DHT22;49010;51.230;-2.306;2022-09-03T06:54:35;17.50;86.80
62916;DHT22;49010;51.230;-2.306;2022-09-03T06:58:21;17.60;87.30
62916;DHT22;49010;51.230;-2.306;2022-09-03T07:02:03;17.70;87.60
62916;DHT22;49010;51.230;-2.306;2022-09-03T07:05:46;17.80;87.50
62916;DHT22;49010;51.230;-2.306;2022-09-03T07:09:28;18.00;87.90
62916;DHT22;49010;51.230;-2.306;2022-09-03T07:13:10;18.20;87.60
62916;DHT22;49010;51.230;-2.306;2022-09-03T07:16:52;18.40;87.50
62916;DHT22;49010;51.230;-2.306;2022-09-03T07:20:34;18.50;87.20
62916;DHT22;49010;51.230;-2.306;2022-09-03T07:24:18;18.70;87.70
62916;DHT22;49010;51.230;-2.306;2022-09-03T07:28:00;18.80;87.00
62916;DHT22;49010;51.230;-2.306;2022-09-03T07:31:43;18.90;87.10
62916;DHT22;49010;51.230;-2.306;2022-09-03T07:35:25;19.00;87.10
62916;DHT22;49010;51.230;-2.306;2022-09-03T07:39:07;19.10;87.00
62916;DHT22;49010;51.230;-2.306;2022-09-03T07:42:56;19.30;86.40
62916;DHT22;49010;51.230;-2.306;2022-09-03T07:46:44;19.50;86.20
62916;DHT22;49010;51.230;-2.306;2022-09-03T07:50:28;19.60;85.50
62916;DHT22;49010;51.230;-2.306;2022-09-03T07:54:13;19.70;85.20
62916;DHT22;49010;51.230;-2.306;2022-09-03T07:57:56;19.70;84.60
62916;DHT22;49010;51.230;-2.306;2022-09-03T08:01:38;19.80;83.80
62916;DHT22;49010;51.230;-2.306;2022-09-03T08:05:22;19.80;83.60
62916;DHT22;49010;51.230;-2.306;2022-09-03T08:09:07;19.90;83.50
62916;DHT22;49010;51.230;-2.306;2022-09-03T08:12:50;19.90;83.00
62916;DHT22;49010;51.230;-2.306;2022-09-03T08:16:44;20.00;82.30
62916;DHT22;49010;51.230;-2.306;2022-09-03T08:20:27;20.00;82.20
62916;DHT22;49010;51.230;-2.306;2022-09-03T08:24:13;20.10;81.60
62916;DHT22;49010;51.230;-2.306;2022-09-03T08:27:57;20.10;80.90
62916;DHT22;49010;51.230;-2.306;2022-09-03T08:31:39;20.20;81.00
62916;DHT22;49010;51.230;-2.306;2022-09-03T08:35:22;20.30;80.50
62916;DHT22;49010;51.230;-2.306;2022-09-03T08:39:06;20.30;80.40
62916;DHT22;49010;51.230;-2.306;2022-09-03T08:43:13;20.30;80.00
62916;DHT22;49010;51.230;-2.306;2022-09-03T08:47:21;20.40;79.80
62916;DHT22;49010;51.230;-2.306;2022-09-03T08:51:06;20.50;78.80
62916;DHT22;49010;51.230;-2.306;2022-09-03T08:54:53;20.60;79.00
62916;DHT22;49010;51.230;-2.306;2022-09-03T08:58:39;20.80;78.60
62916;DHT22;49010;51.230;-2.306;2022-09-03T09:02:38;20.90;78.30
62916;DHT22;49010;51.230;-2.306;2022-09-03T09:11:01;21.30;76.80
62916;DHT22;49010;51.230;-2.306;2022-09-03T09:15:05;21.50;75.80
62916;DHT22;49010;51.230;-2.306;2022-09-03T09:23:07;21.80;73.60
62916;DHT22;49010;51.230;-2.306;2022-09-03T09:26:58;22.00;73.10
62916;DHT22;49010;51.230;-2.306;2022-09-03T09:30:41;22.10;73.40
62916;DHT22;49010;51.230;-2.306;2022-09-03T09:34:23;22.30;72.30
62916;DHT22;49010;51.230;-2.306;2022-09-03T09:38:05;22.50;70.60
62916;DHT22;49010;51.230;-2.306;2022-09-03T09:41:58;22.50;70.90
62916;DHT22;49010;51.230;-2.306;2022-09-03T09:45:45;22.50;70.70
62916;DHT22;49010;51.230;-2.306;2022-09-03T09:49:32;22.50;70.30
62916;DHT22;49010;51.230;-2.306;2022-09-03T09:53:17;22.50;70.00
62916;DHT22;49010;51.230;-2.306;2022-09-03T09:57:06;22.40;70.60
62916;DHT22;49010;51.230;-2.306;2022-09-03T10:04:41;22.40;70.40
62916;DHT22;49010;51.230;-2.306;2022-09-03T10:08:26;22.40;70.80
62916;DHT22;49010;51.230;-2.306;2022-09-03T10:12:26;22.30;71.00
62916;DHT22;49010;51.230;-2.306;2022-09-03T10:16:22;22.30;71.00
62916;DHT22;49010;51.230;-2.306;2022-09-03T10:28:11;22.50;71.20
62916;DHT22;49010;51.230;-2.306;2022-09-03T10:32:07;22.60;70.70
62916;DHT22;49010;51.230;-2.306;2022-09-03T10:36:06;22.80;69.40
62916;DHT22;49010;51.230;-2.306;2022-09-03T10:44:03;23.50;67.10
62916;DHT22;49010;51.230;-2.306;2022-09-03T10:52:11;24.00;64.60
62916;DHT22;49010;51.230;-2.306;2022-09-03T10:56:04;24.20;63.50
62916;DHT22;49010;51.230;-2.306;2022-09-03T11:00:08;24.10;63.30
62916;DHT22;49010;51.230;-2.306;2022-09-03T11:08:06;23.80;65.20
62916;DHT22;49010;51.230;-2.306;2022-09-03T11:11:57;23.90;65.40
62916;DHT22;49010;51.230;-2.306;2022-09-03T11:16:02;24.00;64.20
62916;DHT22;49010;51.230;-2.306;2022-09-03T11:20:18;24.20;63.50
62916;DHT22;49010;51.230;-2.306;2022-09-03T11:24:12;24.10;62.50
62916;DHT22;49010;51.230;-2.306;2022-09-03T11:28:12;24.00;63.60
62916;DHT22;49010;51.230;-2.306;2022-09-03T11:32:07;24.00;64.40
62916;DHT22;49010;51.230;-2.306;2022-09-03T11:35:59;24.00;64.10
62916;DHT22;49010;51.230;-2.306;2022-09-03T11:39:41;24.00;64.30
62916;DHT22;49010;51.230;-2.306;2022-09-03T11:47:15;23.90;62.90
62916;DHT22;49010;51.230;-2.306;2022-09-03T11:50:57;24.00;62.80
62916;DHT22;49010;51.230;-2.306;2022-09-03T11:54:44;24.10;62.70
62916;DHT22;49010;51.230;-2.306;2022-09-03T11:58:33;24.20;61.60
62916;DHT22;49010;51.230;-2.306;2022-09-03T12:02:30;24.30;60.00
62916;DHT22;49010;51.230;-2.306;2022-09-03T12:14:12;24.30;59.00
62916;DHT22;49010;51.230;-2.306;2022-09-03T12:18:06;24.30;58.20
62916;DHT22;49010;51.230;-2.306;2022-09-03T12:22:01;24.30;58.60
62916;DHT22;49010;51.230;-2.306;2022-09-03T12:25:46;24.40;56.20
62916;DHT22;49010;51.230;-2.306;2022-09-03T12:29:30;24.30;57.30
62916;DHT22;49010;51.230;-2.306;2022-09-03T12:33:15;24.20;58.40
62916;DHT22;49010;51.230;-2.306;2022-09-03T12:36:58;24.00;59.40
62916;DHT22;49010;51.230;-2.306;2022-09-03T12:40:42;24.00;61.00
62916;DHT22;49010;51.230;-2.306;2022-09-03T12:44:44;24.00;60.80
62916;DHT22;49010;51.230;-2.306;2022-09-03T12:48:26;23.90;61.60
62916;DHT22;49010;51.230;-2.306;2022-09-03T12:52:27;23.80;61.40
62916;DHT22;49010;51.230;-2.306;2022-09-03T12:56:10;23.80;62.00
62916;DHT22;49010;51.230;-2.306;2022-09-03T12:59:54;23.90;61.20
62916;DHT22;49010;51.230;-2.306;2022-09-03T13:03:46;23.90;60.80
62916;DHT22;49010;51.230;-2.306;2022-09-03T13:07:33;24.00;60.70
62916;DHT22;49010;51.230;-2.306;2022-09-03T13:11:20;24.10;59.40
62916;DHT22;49010;51.230;-2.306;2022-09-03T13:15:08;24.30;58.90
62916;DHT22;49010;51.230;-2.306;2022-09-03T13:27:32;26.20;54.40
62916;DHT22;49010;51.230;-2.306;2022-09-03T13:31:48;27.10;52.50
62916;DHT22;49010;51.230;-2.306;2022-09-03T13:35:52;27.80;51.50
62916;DHT22;49010;51.230;-2.306;2022-09-03T13:39:47;28.30;51.20
62916;DHT22;49010;51.230;-2.306;2022-09-03T13:43:43;29.20;48.00
62916;DHT22;49010;51.230;-2.306;2022-09-03T13:47:49;30.30;46.70
62916;DHT22;49010;51.230;-2.306;2022-09-03T13:51:55;31.00;44.50
62916;DHT22;49010;51.230;-2.306;2022-09-03T13:55:50;30.80;42.90
62916;DHT22;49010;51.230;-2.306;2022-09-03T14:03:46;29.70;45.40
62916;DHT22;49010;51.230;-2.306;2022-09-03T14:19:59;27.60;47.70
62916;DHT22;49010;51.230;-2.306;2022-09-03T14:24:13;27.10;50.20
62916;DHT22;49010;51.230;-2.306;2022-09-03T14:28:12;27.10;50.40
62916;DHT22;49010;51.230;-2.306;2022-09-03T14:36:18;28.00;47.40
62916;DHT22;49010;51.230;-2.306;2022-09-03T15:00:35;26.90;49.50
62916;DHT22;49010;51.230;-2.306;2022-09-03T15:04:28;26.70;49.00
62916;DHT22;49010;51.230;-2.306;2022-09-03T15:12:41;26.10;48.90
62916;DHT22;49010;51.230;-2.306;2022-09-03T15:20:41;25.80;50.00
62916;DHT22;49010;51.230;-2.306;2022-09-03T15:36:09;25.40;47.20
62916;DHT22;49010;51.230;-2.306;2022-09-03T15:40:04;25.20;47.30
62916;DHT22;49010;51.230;-2.306;2022-09-03T15:43:49;25.10;48.60
62916;DHT22;49010;51.230;-2.306;2022-09-03T15:51:35;25.00;48.90
62916;DHT22;49010;51.230;-2.306;2022-09-03T15:59:23;24.90;49.30
62916;DHT22;49010;51.230;-2.306;2022-09-03T16:03:11;24.80;49.60
62916;DHT22;49010;51.230;-2.306;2022-09-03T16:11:44;24.70;50.40
62916;DHT22;49010;51.230;-2.306;2022-09-03T16:15:46;24.50;50.80
62916;DHT22;49010;51.230;-2.306;2022-09-03T16:19:43;24.40;51.80
62916;DHT22;49010;51.230;-2.306;2022-09-03T16:23:46;24.30;52.70
62916;DHT22;49010;51.230;-2.306;2022-09-03T16:27:59;24.30;52.50
62916;DHT22;49010;51.230;-2.306;2022-09-03T16:44:34;23.80;53.50
62916;DHT22;49010;51.230;-2.306;2022-09-03T16:48:29;23.70;53.80
62916;DHT22;49010;51.230;-2.306;2022-09-03T17:24:52;23.10;55.10
62916;DHT22;49010;51.230;-2.306;2022-09-03T17:28:56;23.10;55.30
62916;DHT22;49010;51.230;-2.306;2022-09-03T17:37:23;22.90;56.10
62916;DHT22;49010;51.230;-2.306;2022-09-03T17:41:10;22.80;56.40
62916;DHT22;49010;51.230;-2.306;2022-09-03T17:49:01;22.60;56.70
62916;DHT22;49010;51.230;-2.306;2022-09-03T17:57:01;22.50;57.50
62916;DHT22;49010;51.230;-2.306;2022-09-03T18:00:53;22.50;57.10
62916;DHT22;49010;51.230;-2.306;2022-09-03T18:05:02;22.40;57.50
62916;DHT22;49010;51.230;-2.306;2022-09-03T18:09:41;22.30;57.60
62916;DHT22;49010;51.230;-2.306;2022-09-03T18:20:57;22.00;59.00
62916;DHT22;49010;51.230;-2.306;2022-09-03T18:25:13;21.90;59.40
62916;DHT22;49010;51.230;-2.306;2022-09-03T18:29:18;21.90;59.60
62916;DHT22;49010;51.230;-2.306;2022-09-03T18:33:25;21.80;59.70
62916;DHT22;49010;51.230;-2.306;2022-09-03T18:37:27;21.80;59.60
62916;DHT22;49010;51.230;-2.306;2022-09-03T18:45:59;21.70;60.00
62916;DHT22;49010;51.230;-2.306;2022-09-03T19:03:22;21.30;61.50
62916;DHT22;49010;51.230;-2.306;2022-09-03T19:07:44;21.20;62.00
62916;DHT22;49010;51.230;-2.306;2022-09-03T19:24:27;20.90;63.30
62916;DHT22;49010;51.230;-2.306;2022-09-03T19:28:29;20.80;63.40
62916;DHT22;49010;51.230;-2.306;2022-09-03T19:41:18;20.60;64.20
62916;DHT22;49010;51.230;-2.306;2022-09-03T19:53:46;20.40;65.00
62916;DHT22;49010;51.230;-2.306;2022-09-03T19:57:53;20.40;65.40
62916;DHT22;49010;51.230;-2.306;2022-09-03T20:02:15;20.30;65.60
62916;DHT22;49010;51.230;-2.306;2022-09-03T20:06:16;20.20;65.90
62916;DHT22;49010;51.230;-2.306;2022-09-03T20:10:17;20.20;66.30
62916;DHT22;49010;51.230;-2.306;2022-09-03T20:14:13;20.10;66.50
62916;DHT22;49010;51.230;-2.306;2022-09-03T20:18:01;20.10;66.60
62916;DHT22;49010;51.230;-2.306;2022-09-03T20:21:54;20.10;66.80
62916;DHT22;49010;51.230;-2.306;2022-09-03T20:30:11;20.10;67.00
62916;DHT22;49010;51.230;-2.306;2022-09-03T20:42:00;20.00;67.80
62916;DHT22;49010;51.230;-2.306;2022-09-03T21:01:50;19.90;68.90
62916;DHT22;49010;51.230;-2.306;2022-09-03T21:10:00;19.90;68.80
62916;DHT22;49010;51.230;-2.306;2022-09-03T21:14:00;19.90;69.20
62916;DHT22;49010;51.230;-2.306;2022-09-03T21:18:23;19.80;69.20
62916;DHT22;49010;51.230;-2.306;2022-09-03T21:22:18;19.80;69.50
62916;DHT22;49010;51.230;-2.306;2022-09-03T21:30:22;19.80;69.90
62916;DHT22;49010;51.230;-2.306;2022-09-03T21:34:11;19.80;70.00
62916;DHT22;49010;51.230;-2.306;2022-09-03T21:38:09;19.70;69.90
62916;DHT22;49010;51.230;-2.306;2022-09-03T21:45:49;19.70;67.50
62916;DHT22;49010;51.230;-2.306;2022-09-03T21:53:57;19.70;70.20
62916;DHT22;49010;51.230;-2.306;2022-09-03T21:58:01;19.70;69.50
62916;DHT22;49010;51.230;-2.306;2022-09-03T22:02:18;19.70;70.20
62916;DHT22;49010;51.230;-2.306;2022-09-03T22:06:08;19.70;69.70
62916;DHT22;49010;51.230;-2.306;2022-09-03T22:14:14;19.70;70.10
62916;DHT22;49010;51.230;-2.306;2022-09-03T22:22:30;19.70;70.50
62916;DHT22;49010;51.230;-2.306;2022-09-03T22:30:32;19.70;70.90
62916;DHT22;49010;51.230;-2.306;2022-09-03T22:42:46;19.70;71.70
62916;DHT22;49010;51.230;-2.306;2022-09-03T22:46:44;19.70;72.60
62916;DHT22;49010;51.230;-2.306;2022-09-03T22:50:54;19.70;72.60
62916;DHT22;49010;51.230;-2.306;2022-09-03T22:58:27;19.60;73.80
62916;DHT22;49010;51.230;-2.306;2022-09-03T23:02:21;19.60;73.90
62916;DHT22;49010;51.230;-2.306;2022-09-03T23:06:06;19.60;73.90
62916;DHT22;49010;51.230;-2.306;2022-09-03T23:09:55;19.60;74.70
62916;DHT22;49010;51.230;-2.306;2022-09-03T23:13:40;19.60;74.80
62916;DHT22;49010;51.230;-2.306;2022-09-03T23:17:27;19.60;75.10
62916;DHT22;49010;51.230;-2.306;2022-09-03T23:25:07;19.60;75.70
62916;DHT22;49010;51.230;-2.306;2022-09-03T23:33:15;19.60;75.10
62916;DHT22;49010;51.230;-2.306;2022-09-03T23:37:22;19.60;76.30
62916;DHT22;49010;51.230;-2.306;2022-09-03T23:41:21;19.60;76.10
62916;DHT22;49010;51.230;-2.306;2022-09-03T23:53:45;19.60;76.70
62916;DHT22;49010;51.230;-2.306;2022-09-03T23:57:22;19.60;76.80
